createdAt,value
2017-11-24T00:01:41.465Z,19.62
2017-11-24T00:04:09.813Z,19.37
2017-11-24T00:06:37.442Z,20.98
2017-11-24T00:09:05.078Z,19.25
2017-11-24T00:11:32.662Z,21.30
2017-11-24T00:14:00.233Z,18.62
2017-11-24T00:16:27.808Z,18.95
2017-11-24T00:18:55.485Z,20.23
2017-11-24T00:21:23.019Z,19.73
2017-11-24T00:23:50.564Z,20.15
2017-11-24T00:26:18.578Z,18.95
2017-11-24T00:28:46.156Z,19.25
2017-11-24T00:31:13.754Z,19.75
2017-11-24T00:33:41.347Z,18.83
2017-11-24T00:36:08.950Z,21.05
2017-11-24T00:38:36.974Z,20.23
2017-11-24T00:41:04.559Z,18.85
2017-11-24T00:43:32.873Z,17.98
2017-11-24T00:46:00.421Z,19.77
2017-11-24T00:48:28.058Z,18.23
2017-11-24T00:50:56.365Z,19.23
2017-11-24T00:53:23.905Z,19.02
2017-11-24T00:55:51.484Z,18.20
2017-11-24T00:58:19.070Z,16.87
2017-11-24T01:00:46.677Z,19.83
2017-11-24T01:03:15.022Z,18.50
2017-11-24T01:05:42.606Z,19.45
2017-11-24T01:08:10.188Z,18.20
2017-11-24T01:10:37.767Z,18.58
2017-11-24T01:13:05.298Z,19.35
2017-11-24T01:15:32.850Z,17.27
2017-11-24T01:18:01.270Z,18.20
2017-11-24T01:20:28.843Z,17.12
2017-11-24T01:22:56.413Z,18.65
2017-11-24T01:25:23.981Z,19.37
2017-11-24T01:27:51.597Z,20.77
2017-11-24T01:30:19.165Z,18.40
2017-11-24T01:32:46.741Z,20.55
2017-11-24T01:35:14.356Z,19.52
2017-11-24T01:37:42.732Z,21.30
2017-11-24T01:40:11.158Z,21.02
2017-11-24T01:42:39.210Z,20.73
2017-11-24T01:45:06.793Z,22.60
2017-11-24T01:47:34.478Z,19.33
2017-11-24T01:50:02.015Z,21.48
2017-11-24T01:52:29.620Z,20.95
2017-11-24T01:54:57.205Z,19.45
2017-11-24T01:57:24.782Z,20.92
2017-11-24T01:59:52.380Z,21.37
2017-11-24T02:02:19.965Z,21.15
2017-11-24T02:04:47.552Z,21.90
2017-11-24T02:07:15.128Z,20.80
2017-11-24T02:09:42.728Z,21.58
2017-11-24T02:12:10.279Z,22.15
2017-11-24T02:14:37.857Z,21.77
2017-11-24T02:17:05.434Z,20.65
2017-11-24T02:19:33.793Z,21.80
2017-11-24T02:22:01.343Z,20.75
2017-11-24T02:24:28.942Z,20.50
2017-11-24T02:26:56.477Z,21.27
2017-11-24T02:29:26.362Z,19.60
2017-11-24T02:31:54.112Z,20.83
2017-11-24T02:34:22.699Z,21.75
2017-11-24T02:36:50.303Z,20.42
2017-11-24T02:39:17.911Z,19.60
2017-11-24T02:41:45.474Z,21.48
2017-11-24T02:44:13.083Z,22.15
2017-11-24T02:46:40.698Z,20.45
2017-11-24T02:49:08.256Z,20.65
2017-11-24T02:51:35.805Z,20.80
2017-11-24T02:54:03.822Z,20.52
2017-11-24T02:56:31.406Z,19.75
2017-11-24T02:58:58.975Z,19.90
2017-11-24T03:01:27.029Z,18.62
2017-11-24T03:03:55.395Z,18.77
2017-11-24T03:06:22.927Z,18.77
2017-11-24T03:08:50.510Z,17.58
2017-11-24T03:11:18.126Z,18.85
2017-11-24T03:13:45.700Z,20.02
2017-11-24T03:16:13.249Z,16.65
2017-11-24T03:18:41.304Z,18.25
2017-11-24T03:21:08.878Z,18.02
2017-11-24T03:23:36.465Z,18.05
2017-11-24T03:26:04.049Z,16.48
2017-11-24T03:28:31.635Z,16.42
2017-11-24T03:30:59.226Z,16.62
2017-11-24T03:33:26.832Z,16.15
2017-11-24T03:35:54.401Z,17.33
2017-11-24T03:38:22.062Z,17.02
2017-11-24T03:40:49.634Z,15.85
2017-11-24T03:43:17.213Z,16.20
2017-11-24T03:45:44.802Z,16.95
2017-11-24T03:48:12.350Z,16.58
2017-11-24T03:50:40.729Z,16.42
2017-11-24T03:53:08.335Z,15.88
2017-11-24T03:55:35.951Z,15.23
2017-11-24T03:58:03.535Z,16.25
2017-11-24T04:00:31.134Z,15.52
2017-11-24T04:02:58.717Z,16.37
2017-11-24T04:05:26.327Z,15.35
2017-11-24T04:07:53.965Z,16.40
2017-11-24T04:10:21.564Z,15.25
2017-11-24T04:12:49.241Z,15.70
2017-11-24T04:15:16.816Z,16.37
2017-11-24T04:17:44.388Z,15.52
2017-11-24T04:20:11.979Z,16.10
2017-11-24T04:22:39.670Z,15.20
2017-11-24T04:25:07.344Z,15.65
2017-11-24T04:27:35.662Z,14.73
2017-11-24T04:30:03.268Z,15.77
2017-11-24T04:32:30.865Z,16.12
2017-11-24T04:34:58.710Z,16.08
2017-11-24T04:37:26.328Z,15.07
2017-11-24T04:39:53.883Z,16.02
2017-11-24T04:42:21.449Z,14.90
2017-11-24T04:44:49.011Z,16.30
2017-11-24T04:47:16.566Z,16.67
2017-11-24T04:49:44.194Z,16.58
2017-11-24T04:52:11.788Z,16.60
2017-11-24T04:54:39.385Z,14.65
2017-11-24T04:57:06.989Z,13.88
2017-11-24T04:59:34.613Z,15.65
2017-11-24T05:02:02.234Z,17.27
2017-11-24T05:04:29.798Z,15.32
2017-11-24T05:06:57.350Z,15.93
2017-11-24T05:09:24.949Z,15.48
2017-11-24T05:11:52.545Z,17.30
2017-11-24T05:14:20.135Z,18.23
2017-11-24T05:16:47.705Z,17.00
2017-11-24T05:19:15.308Z,15.95
2017-11-24T05:21:42.903Z,17.70
2017-11-24T05:24:10.524Z,21.62
2017-11-24T05:26:38.124Z,18.80
2017-11-24T05:29:05.768Z,18.02
2017-11-24T05:31:33.362Z,17.55
2017-11-24T05:34:00.993Z,17.58
2017-11-24T05:36:28.600Z,15.90
2017-11-24T05:38:56.190Z,16.58
2017-11-24T05:41:23.747Z,16.48
2017-11-24T05:43:51.337Z,15.13
2017-11-24T05:46:18.936Z,14.38
2017-11-24T05:48:46.533Z,14.50
2017-11-24T05:51:14.125Z,14.98
2017-11-24T05:53:41.711Z,15.40
2017-11-24T05:56:09.264Z,15.60
2017-11-24T05:58:36.853Z,15.85
2017-11-24T06:01:04.453Z,13.60
2017-11-24T06:03:32.048Z,15.95
2017-11-24T06:05:59.647Z,14.80
2017-11-24T06:08:28.087Z,15.75
2017-11-24T06:10:55.718Z,15.02
2017-11-24T06:13:24.980Z,15.57
2017-11-24T06:15:56.252Z,14.95
2017-11-24T06:18:24.846Z,16.70
2017-11-24T06:20:53.364Z,16.95
2017-11-24T06:23:21.192Z,15.65
2017-11-24T06:25:48.806Z,15.27
2017-11-24T06:28:16.818Z,14.15
2017-11-24T06:30:45.238Z,14.40
2017-11-24T06:33:19.073Z,14.40
2017-11-24T06:35:50.516Z,16.73
2017-11-24T06:38:18.071Z,17.37
2017-11-24T06:40:45.665Z,15.20
2017-11-24T06:43:13.990Z,14.10
2017-11-24T06:45:41.620Z,14.80
2017-11-24T06:48:09.225Z,13.70
2017-11-24T06:50:36.787Z,13.07
2017-11-24T06:53:04.383Z,14.57
2017-11-24T06:55:31.937Z,14.20
2017-11-24T06:57:59.498Z,16.15
2017-11-24T07:00:27.831Z,15.35
2017-11-24T07:02:55.388Z,14.45
2017-11-24T07:05:22.947Z,14.87
2017-11-24T07:07:50.617Z,14.35
2017-11-24T07:10:18.312Z,14.87
2017-11-24T07:12:45.980Z,14.75
2017-11-24T07:15:13.550Z,14.02
2017-11-24T07:17:41.160Z,14.20
2017-11-24T07:20:08.736Z,13.80
2017-11-24T07:22:37.412Z,14.85
2017-11-24T07:25:05.131Z,13.15
2017-11-24T07:27:32.823Z,14.40
2017-11-24T07:30:00.396Z,13.73
2017-11-24T07:32:27.988Z,14.18
2017-11-24T07:34:55.575Z,14.02
2017-11-24T07:37:23.172Z,14.52
2017-11-24T07:39:50.768Z,14.23
2017-11-24T07:42:18.356Z,13.98
2017-11-24T07:44:46.714Z,14.57
2017-11-24T07:47:14.340Z,13.98
2017-11-24T07:49:41.894Z,14.32
2017-11-24T07:52:09.442Z,13.57
2017-11-24T07:54:37.016Z,13.27
2017-11-24T07:57:04.650Z,13.62
2017-11-24T07:59:32.244Z,12.10
2017-11-24T08:01:59.853Z,12.20
2017-11-24T08:04:28.217Z,11.63
2017-11-24T08:06:55.809Z,13.52
2017-11-24T08:09:23.452Z,12.13
2017-11-24T08:11:52.596Z,11.73
2017-11-24T08:14:20.155Z,11.10
2017-11-24T08:16:47.744Z,10.95
2017-11-24T08:19:15.336Z,10.65
2017-11-24T08:21:42.927Z,11.25
2017-11-24T08:24:10.524Z,10.23
2017-11-24T08:26:38.104Z,10.40
2017-11-24T08:29:06.422Z,10.60
2017-11-24T08:31:34.023Z,11.40
2017-11-24T08:34:01.658Z,11.30
2017-11-24T08:36:29.216Z,11.70
2017-11-24T08:38:56.798Z,11.12
2017-11-24T08:41:24.388Z,11.45
2017-11-24T08:43:52.750Z,11.10
2017-11-24T08:46:26.928Z,11.70
2017-11-24T08:49:00.228Z,10.80
2017-11-24T08:51:27.779Z,10.65
2017-11-24T08:53:55.335Z,12.00
2017-11-24T08:56:22.891Z,11.25
2017-11-24T08:58:50.478Z,11.02
2017-11-24T09:01:18.102Z,10.98
2017-11-24T09:03:45.696Z,10.65
2017-11-24T09:06:13.301Z,10.38
2017-11-24T09:08:40.895Z,10.85
2017-11-24T09:11:08.513Z,10.45
2017-11-24T09:13:36.119Z,11.95
2017-11-24T09:16:03.755Z,11.43
2017-11-24T09:18:31.350Z,10.88
2017-11-24T09:20:58.957Z,10.88
2017-11-24T09:23:26.552Z,11.23
2017-11-24T09:25:54.141Z,11.60
2017-11-24T09:28:21.823Z,11.55
2017-11-24T09:30:49.444Z,10.75
2017-11-24T09:33:17.070Z,11.43
2017-11-24T09:35:44.639Z,10.55
2017-11-24T09:38:12.268Z,11.57
2017-11-24T09:40:39.905Z,10.75
2017-11-24T09:43:07.476Z,10.57
2017-11-24T09:45:35.124Z,10.90
2017-11-24T09:48:02.673Z,10.27
2017-11-24T09:50:30.237Z,9.73
2017-11-24T09:52:57.837Z,10.27
2017-11-24T09:55:25.439Z,9.27
2017-11-24T09:57:53.000Z,9.57
2017-11-24T10:00:20.592Z,10.57
2017-11-24T10:02:48.200Z,9.40
2017-11-24T10:05:15.802Z,11.65
2017-11-24T10:07:43.422Z,10.52
2017-11-24T10:10:11.032Z,10.55
2017-11-24T10:12:38.644Z,9.18
2017-11-24T10:15:06.208Z,11.90
2017-11-24T10:17:34.585Z,10.50
2017-11-24T10:20:02.917Z,16.65
2017-11-24T10:22:43.465Z,15.18
2017-11-24T10:25:11.069Z,10.18
2017-11-24T10:27:38.669Z,17.98
2017-11-24T10:30:06.265Z,10.20
2017-11-24T10:32:33.904Z,9.82
2017-11-24T10:35:01.507Z,16.45
2017-11-24T10:37:29.107Z,12.15
2017-11-24T10:39:56.703Z,12.95
2017-11-24T10:42:24.318Z,11.05
2017-11-24T10:44:52.022Z,10.43
2017-11-24T10:47:19.591Z,11.98
2017-11-24T10:49:47.192Z,11.20
2017-11-24T10:52:15.560Z,10.70
2017-11-24T10:54:43.159Z,11.55
2017-11-24T10:57:10.761Z,9.85
2017-11-24T10:59:38.370Z,10.27
2017-11-24T11:02:05.970Z,10.30
2017-11-24T11:04:33.565Z,13.50
2017-11-24T11:07:01.182Z,10.35
2017-11-24T11:09:28.735Z,10.27
2017-11-24T11:11:56.301Z,11.27
2017-11-24T11:14:23.860Z,11.20
2017-11-24T11:16:51.430Z,11.10
2017-11-24T11:19:19.088Z,14.02
2017-11-24T11:21:46.681Z,10.25
2017-11-24T11:24:14.298Z,11.38
2017-11-24T11:26:41.904Z,10.23
2017-11-24T11:29:09.529Z,10.52
2017-11-24T11:31:37.126Z,11.32
2017-11-24T11:34:04.736Z,10.70
2017-11-24T11:36:32.912Z,10.57
2017-11-24T11:39:02.464Z,10.40
2017-11-24T11:41:30.090Z,9.68
2017-11-24T11:43:57.704Z,8.52
2017-11-24T11:46:26.070Z,9.32
2017-11-24T11:48:53.676Z,10.20
2017-11-24T11:51:21.300Z,9.27
2017-11-24T11:53:48.933Z,9.15
2017-11-24T11:56:16.553Z,9.77
2017-11-24T11:58:44.189Z,9.40
2017-11-24T12:01:11.857Z,8.98
2017-11-24T12:03:39.464Z,8.65
2017-11-24T12:06:07.017Z,9.13
2017-11-24T12:08:34.616Z,8.32
2017-11-24T12:11:03.426Z,9.27
2017-11-24T12:13:31.798Z,8.52
2017-11-24T12:16:00.142Z,8.50
2017-11-24T12:18:27.741Z,9.32
2017-11-24T12:20:55.357Z,9.23
2017-11-24T12:23:27.533Z,9.25
2017-11-24T12:25:55.333Z,9.25
2017-11-24T12:28:23.043Z,9.73
2017-11-24T12:30:51.659Z,10.15
2017-11-24T12:33:19.213Z,9.10
2017-11-24T12:35:46.784Z,10.48
2017-11-24T12:38:14.384Z,9.60
2017-11-24T12:40:42.033Z,9.25
2017-11-24T12:43:10.411Z,10.50
2017-11-24T12:45:38.018Z,10.15
2017-11-24T12:48:05.652Z,10.00
2017-11-24T12:50:33.312Z,10.38
2017-11-24T12:53:00.914Z,10.43
2017-11-24T12:55:28.469Z,9.80
2017-11-24T12:57:56.056Z,9.60
2017-11-24T13:00:23.693Z,11.73
2017-11-24T13:02:51.265Z,11.30
2017-11-24T13:05:18.865Z,10.38
2017-11-24T13:07:47.219Z,11.55
2017-11-24T13:10:14.776Z,11.50
2017-11-24T13:12:42.380Z,10.82
2017-11-24T13:15:09.958Z,10.75
2017-11-24T13:17:37.558Z,11.32
2017-11-24T13:20:05.165Z,11.27
2017-11-24T13:22:32.822Z,12.10
2017-11-24T13:25:00.388Z,11.30
2017-11-24T13:27:27.937Z,11.18
2017-11-24T13:29:55.534Z,11.00
2017-11-24T13:32:23.091Z,12.57
2017-11-24T13:34:50.674Z,11.93
2017-11-24T13:37:18.253Z,12.18
2017-11-24T13:39:46.614Z,14.60
2017-11-24T13:42:14.345Z,11.02
2017-11-24T13:44:41.953Z,13.60
2017-11-24T13:47:09.547Z,11.77
2017-11-24T13:49:37.136Z,12.95
2017-11-24T13:52:04.682Z,13.48
2017-11-24T13:54:32.235Z,12.20
2017-11-24T13:56:59.829Z,16.73
2017-11-24T13:59:27.425Z,14.20
2017-11-24T14:01:55.744Z,13.50
2017-11-24T14:04:23.345Z,12.20
2017-11-24T14:06:50.942Z,12.48
2017-11-24T14:09:18.533Z,12.63
2017-11-24T14:11:46.120Z,14.45
2017-11-24T14:14:13.707Z,13.10
2017-11-24T14:16:41.296Z,12.30
2017-11-24T14:19:08.884Z,13.43
2017-11-24T14:21:36.530Z,13.02
2017-11-24T14:24:04.124Z,13.02
2017-11-24T14:26:31.715Z,12.15
2017-11-24T14:29:00.078Z,11.20
2017-11-24T14:31:28.444Z,12.95
2017-11-24T14:33:56.284Z,13.40
2017-11-24T14:36:23.876Z,13.35
2017-11-24T14:38:51.498Z,13.32
2017-11-24T14:41:19.093Z,13.48
2017-11-24T14:43:46.763Z,13.88
2017-11-24T14:46:14.395Z,13.90
2017-11-24T14:48:41.990Z,13.30
2017-11-24T14:51:09.584Z,14.60
2017-11-24T14:53:38.072Z,15.15
2017-11-24T14:56:05.682Z,16.33
2017-11-24T14:58:33.291Z,15.40
2017-11-24T15:01:00.913Z,13.48
2017-11-24T15:03:28.496Z,14.75
2017-11-24T15:05:56.111Z,14.18
2017-11-24T15:08:23.664Z,13.55
2017-11-24T15:10:51.243Z,15.23
2017-11-24T15:13:18.835Z,14.15
2017-11-24T15:15:46.442Z,14.55
2017-11-24T15:18:14.035Z,14.20
2017-11-24T15:20:41.627Z,52.28
2017-11-24T15:23:09.223Z,34.55
2017-11-24T15:25:36.816Z,16.98
2017-11-24T15:28:04.404Z,15.93
2017-11-24T15:30:31.948Z,16.15
2017-11-24T15:32:59.601Z,16.90
2017-11-24T15:35:27.194Z,16.52
2017-11-24T15:37:54.974Z,15.65
2017-11-24T15:40:22.582Z,14.05
2017-11-24T15:42:50.183Z,14.65
2017-11-24T15:45:17.762Z,14.50
2017-11-24T15:47:45.352Z,14.07
2017-11-24T15:50:12.944Z,14.85
2017-11-24T15:52:41.297Z,15.02
2017-11-24T15:55:08.935Z,19.62
2017-11-24T15:57:36.490Z,20.60
2017-11-24T16:00:04.081Z,14.32
2017-11-24T16:02:31.636Z,15.02
2017-11-24T16:04:59.238Z,13.10
2017-11-24T16:07:26.790Z,15.65
2017-11-24T16:09:54.344Z,15.02
2017-11-24T16:12:21.937Z,13.95
2017-11-24T16:14:49.527Z,14.98
2017-11-24T16:17:17.118Z,15.20
2017-11-24T16:19:45.473Z,15.88
2017-11-24T16:22:13.116Z,16.17
2017-11-24T16:24:40.710Z,16.27
2017-11-24T16:27:08.287Z,17.75
2017-11-24T16:29:35.918Z,15.63
2017-11-24T16:32:03.537Z,16.48
2017-11-24T16:34:31.134Z,14.70
2017-11-24T16:36:58.729Z,14.85
2017-11-24T16:39:26.324Z,14.35
2017-11-24T16:41:53.922Z,16.45
2017-11-24T16:44:21.521Z,20.62
2017-11-24T16:46:49.168Z,17.85
2017-11-24T16:49:16.786Z,18.20
2017-11-24T16:51:44.364Z,22.80
2017-11-24T16:54:11.989Z,21.40
2017-11-24T16:56:39.610Z,26.98
2017-11-24T16:59:07.213Z,24.00
2017-11-24T17:01:34.783Z,21.48
2017-11-24T17:04:02.390Z,21.12
2017-11-24T17:06:30.010Z,21.70
2017-11-24T17:08:57.689Z,20.42
2017-11-24T17:11:25.304Z,20.48
2017-11-24T17:13:52.910Z,20.50
2017-11-24T17:16:20.501Z,20.20
2017-11-24T17:18:48.091Z,19.65
2017-11-24T17:21:15.693Z,18.40
2017-11-24T17:23:43.290Z,19.30
2017-11-24T17:26:10.889Z,19.35
2017-11-24T17:28:38.552Z,18.02
2017-11-24T17:31:06.083Z,19.60
2017-11-24T17:33:33.639Z,18.58
2017-11-24T17:36:01.230Z,17.42
2017-11-24T17:38:28.797Z,19.70
2017-11-24T17:40:56.381Z,18.65
2017-11-24T17:43:23.989Z,17.42
2017-11-24T17:45:51.588Z,16.83
2017-11-24T17:48:19.180Z,18.10
2017-11-24T17:50:46.772Z,22.55
2017-11-24T17:53:14.378Z,21.90
2017-11-24T17:55:41.932Z,27.58
2017-11-24T17:58:09.539Z,18.17
2017-11-24T18:00:37.922Z,16.98
2017-11-24T18:03:05.963Z,16.33
2017-11-24T18:05:33.872Z,17.25
2017-11-24T18:08:01.464Z,16.42
2017-11-24T18:10:29.100Z,15.32
2017-11-24T18:12:56.697Z,18.15
2017-11-24T18:15:24.266Z,17.08
2017-11-24T18:17:51.865Z,14.77
2017-11-24T18:20:19.463Z,15.05
2017-11-24T18:22:47.035Z,15.05
2017-11-24T18:25:14.626Z,14.87
2017-11-24T18:27:42.235Z,14.20
2017-11-24T18:30:09.792Z,15.30
2017-11-24T18:32:37.363Z,14.60
2017-11-24T18:35:04.968Z,15.80
2017-11-24T18:37:33.378Z,18.02
2017-11-24T18:40:00.983Z,19.37
2017-11-24T18:42:28.621Z,21.10
2017-11-24T18:44:56.222Z,20.83
2017-11-24T18:47:23.881Z,21.55
2017-11-24T18:49:51.494Z,21.33
2017-11-24T18:52:19.088Z,20.65
2017-11-24T18:54:46.686Z,20.27
2017-11-24T18:57:15.035Z,18.83
2017-11-24T18:59:42.602Z,20.30
2017-11-24T19:02:10.213Z,20.80
2017-11-24T19:04:38.759Z,20.52
2017-11-24T19:07:06.384Z,20.02
2017-11-24T19:09:33.971Z,19.20
2017-11-24T19:12:01.635Z,19.20
2017-11-24T19:14:30.041Z,18.55
2017-11-24T19:16:58.432Z,19.52
2017-11-24T19:19:26.192Z,18.73
2017-11-24T19:21:53.813Z,15.90
2017-11-24T19:24:21.416Z,16.33
2017-11-24T19:26:49.151Z,15.45
2017-11-24T19:29:17.514Z,12.95
2017-11-24T19:31:45.173Z,12.35
2017-11-24T19:34:12.771Z,12.57
2017-11-24T19:36:41.140Z,12.37
2017-11-24T19:39:09.556Z,13.27
2017-11-24T19:41:37.267Z,13.93
2017-11-24T19:44:04.893Z,14.10
2017-11-24T19:46:32.483Z,13.98
2017-11-24T19:49:00.078Z,14.30
2017-11-24T19:51:27.677Z,12.85
2017-11-24T19:53:55.285Z,14.07
2017-11-24T19:56:22.900Z,15.13
2017-11-24T19:58:50.504Z,13.00
2017-11-24T20:01:18.138Z,14.18
2017-11-24T20:03:48.567Z,15.73
2017-11-24T20:06:16.168Z,15.68
2017-11-24T20:08:43.795Z,14.90
2017-11-24T20:11:11.416Z,14.93
2017-11-24T20:13:39.021Z,15.07
2017-11-24T20:16:06.617Z,15.80
2017-11-24T20:18:34.353Z,16.58
2017-11-24T20:21:01.952Z,16.60
2017-11-24T20:23:29.548Z,18.52
2017-11-24T20:25:57.111Z,18.75
2017-11-24T20:28:24.714Z,17.12
2017-11-24T20:30:53.072Z,18.67
2017-11-24T20:33:20.638Z,16.37
2017-11-24T20:35:48.262Z,16.65
2017-11-24T20:38:15.860Z,19.40
2017-11-24T20:40:55.960Z,19.17
2017-11-24T20:43:23.599Z,17.33
2017-11-24T20:45:51.232Z,18.42
2017-11-24T20:48:18.902Z,16.83
2017-11-24T20:50:49.476Z,17.62
2017-11-24T20:53:17.085Z,17.25
2017-11-24T20:55:44.680Z,18.83
2017-11-24T20:58:12.309Z,18.02
2017-11-24T21:00:39.929Z,16.70
2017-11-24T21:03:07.502Z,17.40
2017-11-24T21:05:35.101Z,17.85
2017-11-24T21:08:03.433Z,16.98
2017-11-24T21:10:30.996Z,16.65
2017-11-24T21:12:58.601Z,19.08
2017-11-24T21:15:26.829Z,16.83
2017-11-24T21:17:54.548Z,17.23
2017-11-24T21:20:23.084Z,17.58
2017-11-24T21:22:50.705Z,16.58
2017-11-24T21:25:18.261Z,16.35
2017-11-24T21:27:45.893Z,16.50
2017-11-24T21:30:13.489Z,17.73
2017-11-24T21:32:41.108Z,16.02
2017-11-24T21:35:08.704Z,17.83
2017-11-24T21:37:36.269Z,16.90
2017-11-24T21:40:03.865Z,17.27
2017-11-24T21:42:31.551Z,16.10
2017-11-24T21:44:59.147Z,15.93
2017-11-24T21:47:26.709Z,16.95
2017-11-24T21:49:54.314Z,16.12
2017-11-24T21:52:21.914Z,16.00
2017-11-24T21:54:49.512Z,16.30
2017-11-24T21:57:17.148Z,16.83
2017-11-24T21:59:44.809Z,15.63
2017-11-24T22:02:12.397Z,15.25
2017-11-24T22:04:39.979Z,14.60
2017-11-24T22:07:07.661Z,15.45
2017-11-24T22:09:35.274Z,15.77
2017-11-24T22:12:02.877Z,15.57
2017-11-24T22:14:30.475Z,15.15
2017-11-24T22:16:58.990Z,14.27
2017-11-24T22:19:26.558Z,15.98
2017-11-24T22:21:54.112Z,14.00
2017-11-24T22:24:21.705Z,16.10
2017-11-24T22:26:49.300Z,16.15
2017-11-24T22:29:16.901Z,17.40
2017-11-24T22:31:44.505Z,18.17
2017-11-24T22:34:12.127Z,16.33
2017-11-24T22:36:39.720Z,15.77
2017-11-24T22:39:07.293Z,15.68
2017-11-24T22:41:34.897Z,15.32
2017-11-24T22:44:02.602Z,15.40
2017-11-24T22:46:30.262Z,15.13
2017-11-24T22:48:57.860Z,17.33
2017-11-24T22:51:25.467Z,18.70
2017-11-24T22:53:53.107Z,19.10
2017-11-24T22:56:20.725Z,18.98
2017-11-24T22:58:48.942Z,19.67
2017-11-24T23:01:16.534Z,19.35
2017-11-24T23:03:44.131Z,21.40
2017-11-24T23:06:11.760Z,19.65
2017-11-24T23:08:39.385Z,20.00
2017-11-24T23:11:07.009Z,19.80
2017-11-24T23:13:35.434Z,18.70
2017-11-24T23:16:03.066Z,18.52
2017-11-24T23:18:30.693Z,19.58
2017-11-24T23:20:58.259Z,18.02
2017-11-24T23:23:25.839Z,16.95
2017-11-24T23:25:53.436Z,19.10
2017-11-24T23:28:20.998Z,21.40
2017-11-24T23:30:48.552Z,20.23
2017-11-24T23:33:16.113Z,20.20
2017-11-24T23:35:43.713Z,20.85
2017-11-24T23:38:11.269Z,21.40
2017-11-24T23:40:38.868Z,20.20
2017-11-24T23:43:06.431Z,18.60
2017-11-24T23:45:34.030Z,19.50
2017-11-24T23:48:01.630Z,22.10
2017-11-24T23:50:30.410Z,22.13
2017-11-24T23:52:58.804Z,23.50
2017-11-24T23:55:27.127Z,23.50
2017-11-24T23:57:54.762Z,21.12
